createdAt,value
2017-12-31T00:00:59.000Z,62.2
2017-12-31T00:01:59.000Z,62.59
2017-12-31T00:02:59.000Z,62.61
2017-12-31T00:04:01.000Z,62.56
2017-12-31T00:08:33.000Z,62.96
2017-12-31T00:09:33.000Z,62.51
2017-12-31T00:10:33.000Z,62.72
2017-12-31T00:11:34.000Z,62.48
2017-12-31T00:12:34.000Z,62.76
2017-12-31T00:13:34.000Z,63.18
2017-12-31T00:14:34.000Z,62.84
2017-12-31T00:15:35.000Z,62.94
2017-12-31T00:16:35.000Z,62.98
2017-12-31T00:17:36.000Z,63.54
2017-12-31T00:18:36.000Z,63.65
2017-12-31T00:19:36.000Z,63.55
2017-12-31T00:20:37.000Z,63.67
2017-12-31T00:21:37.000Z,63.69
2017-12-31T00:22:37.000Z,63.86
2017-12-31T00:23:37.000Z,63.71
2017-12-31T00:24:37.000Z,63.72
2017-12-31T00:25:37.000Z,63.53
2017-12-31T00:26:37.000Z,63.87
2017-12-31T00:27:38.000Z,63.55
2017-12-31T00:28:38.000Z,63.5
2017-12-31T00:29:39.000Z,63.54
2017-12-31T00:30:39.000Z,63.62
2017-12-31T00:31:39.000Z,63.98
2017-12-31T00:32:39.000Z,63.91
2017-12-31T00:37:43.000Z,63.69
2017-12-31T00:38:43.000Z,63.62
2017-12-31T00:39:43.000Z,64.16
2017-12-31T00:40:43.000Z,64.01
2017-12-31T00:41:44.000Z,64
2017-12-31T00:42:44.000Z,64.12
2017-12-31T00:43:44.000Z,63.89
2017-12-31T00:44:45.000Z,63.88
2017-12-31T00:45:45.000Z,64.39
2017-12-31T00:46:45.000Z,64.21
2017-12-31T00:47:45.000Z,64.16
2017-12-31T00:48:45.000Z,64.37
2017-12-31T00:49:46.000Z,64.09
2017-12-31T00:50:46.000Z,64.48
2017-12-31T00:51:46.000Z,64.39
2017-12-31T00:52:47.000Z,64.57
2017-12-31T00:53:47.000Z,65.02
2017-12-31T00:54:47.000Z,64.92
2017-12-31T00:55:48.000Z,65.45
2017-12-31T00:56:48.000Z,65.59
2017-12-31T00:57:49.000Z,65.42
2017-12-31T00:58:49.000Z,65.26
2017-12-31T01:04:05.000Z,66.02
2017-12-31T01:05:05.000Z,65.83
2017-12-31T01:06:05.000Z,65.92
2017-12-31T01:07:05.000Z,66.17
2017-12-31T01:08:05.000Z,65.88
2017-12-31T01:09:06.000Z,65.98
2017-12-31T01:10:06.000Z,66.15
2017-12-31T01:11:06.000Z,66.59
2017-12-31T01:12:07.000Z,66.4
2017-12-31T01:13:07.000Z,66.62
2017-12-31T01:14:07.000Z,66.43
2017-12-31T01:15:08.000Z,66.62
2017-12-31T01:16:08.000Z,66.68
2017-12-31T01:17:08.000Z,66.32
2017-12-31T01:18:08.000Z,67.14
2017-12-31T01:19:08.000Z,66.57
2017-12-31T01:20:08.000Z,67.03
2017-12-31T01:21:08.000Z,66.97
2017-12-31T01:22:08.000Z,67.59
2017-12-31T01:23:08.000Z,67.55
2017-12-31T01:24:09.000Z,67.53
2017-12-31T01:25:09.000Z,67.22
2017-12-31T01:26:09.000Z,67.76
2017-12-31T01:27:09.000Z,67.42
2017-12-31T01:28:10.000Z,67.73
2017-12-31T01:29:10.000Z,68.37
2017-12-31T01:30:11.000Z,68.19
2017-12-31T01:31:11.000Z,68.86
2017-12-31T01:32:11.000Z,68.6
2017-12-31T01:33:11.000Z,68.61
2017-12-31T01:34:12.000Z,69.17
2017-12-31T01:35:12.000Z,69.04
2017-12-31T01:36:12.000Z,69.35
2017-12-31T01:37:12.000Z,69.35
2017-12-31T01:38:13.000Z,69.01
2017-12-31T01:39:12.000Z,69.69
2017-12-31T01:40:13.000Z,69.31
2017-12-31T01:41:13.000Z,69.5
2017-12-31T01:42:13.000Z,69.37
2017-12-31T01:43:14.000Z,69
2017-12-31T01:44:14.000Z,69.15
2017-12-31T01:45:14.000Z,69.35
2017-12-31T01:46:14.000Z,69.45
2017-12-31T01:47:14.000Z,69.41
2017-12-31T01:48:15.000Z,69.17
2017-12-31T01:49:16.000Z,69.65
2017-12-31T01:50:16.000Z,69.22
2017-12-31T01:51:16.000Z,69.46
2017-12-31T01:52:17.000Z,69.48
2017-12-31T01:53:17.000Z,69.61
2017-12-31T01:54:17.000Z,69.59
2017-12-31T01:55:17.000Z,69.41
2017-12-31T01:56:17.000Z,69.68
2017-12-31T01:57:18.000Z,69.57
2017-12-31T01:58:18.000Z,69.42
2017-12-31T01:59:18.000Z,69.49
2017-12-31T02:00:18.000Z,69.56
2017-12-31T02:01:19.000Z,69.62
2017-12-31T02:02:19.000Z,69.43
2017-12-31T02:03:19.000Z,69.77
2017-12-31T02:04:20.000Z,69.81
2017-12-31T02:05:20.000Z,69.57
2017-12-31T02:06:20.000Z,69.61
2017-12-31T02:07:21.000Z,69.51
2017-12-31T02:08:21.000Z,69.46
2017-12-31T02:09:21.000Z,69.25
2017-12-31T02:10:21.000Z,69.75
2017-12-31T02:11:21.000Z,69.22
2017-12-31T02:12:22.000Z,69.37
2017-12-31T02:13:22.000Z,69.33
2017-12-31T02:14:21.000Z,69.35
2017-12-31T02:15:22.000Z,69.44
2017-12-31T02:16:22.000Z,69.33
2017-12-31T02:17:22.000Z,69.71
2017-12-31T02:18:22.000Z,69.6
2017-12-31T02:19:22.000Z,69.65
2017-12-31T02:20:22.000Z,69.2
2017-12-31T02:21:22.000Z,69.57
2017-12-31T02:22:22.000Z,69.55
2017-12-31T02:23:23.000Z,69.95
2017-12-31T02:24:24.000Z,69.71
2017-12-31T02:25:24.000Z,69.54
2017-12-31T02:26:24.000Z,69.84
2017-12-31T02:27:25.000Z,69.73
2017-12-31T02:28:25.000Z,69.7
2017-12-31T02:29:26.000Z,69.54
2017-12-31T02:30:26.000Z,69.29
2017-12-31T02:31:26.000Z,69.47
2017-12-31T02:32:26.000Z,69.29
2017-12-31T02:33:27.000Z,69.79
2017-12-31T02:34:26.000Z,69.44
2017-12-31T02:35:27.000Z,69.47
2017-12-31T02:36:27.000Z,69.65
2017-12-31T02:37:27.000Z,69.32
2017-12-31T02:38:28.000Z,69.63
2017-12-31T02:39:28.000Z,69.53
2017-12-31T02:40:28.000Z,69.69
2017-12-31T02:41:29.000Z,70.04
2017-12-31T02:42:29.000Z,69.41
2017-12-31T02:43:29.000Z,69.68
2017-12-31T02:44:29.000Z,70.14
2017-12-31T02:45:29.000Z,69.68
2017-12-31T02:46:29.000Z,69.85
2017-12-31T02:47:30.000Z,69.86
2017-12-31T02:48:30.000Z,69.68
2017-12-31T02:49:31.000Z,69.59
2017-12-31T02:50:31.000Z,70.03
2017-12-31T02:51:32.000Z,69.43
2017-12-31T02:52:32.000Z,69.76
2017-12-31T02:53:32.000Z,69.5
2017-12-31T02:54:32.000Z,69.72
2017-12-31T02:55:32.000Z,69.33
2017-12-31T02:56:32.000Z,70
2017-12-31T02:57:32.000Z,69.65
2017-12-31T02:58:33.000Z,69.97
2017-12-31T02:59:34.000Z,69.92
2017-12-31T03:00:34.000Z,69.58
2017-12-31T03:01:34.000Z,69.93
2017-12-31T03:02:34.000Z,69.96
2017-12-31T03:03:35.000Z,69.57
2017-12-31T03:04:35.000Z,69.32
2017-12-31T03:05:35.000Z,69.73
2017-12-31T03:06:36.000Z,70.08
2017-12-31T03:07:36.000Z,69.65
2017-12-31T03:08:36.000Z,70.18
2017-12-31T03:09:36.000Z,69.67
2017-12-31T03:10:36.000Z,70.29
2017-12-31T03:11:36.000Z,69.53
2017-12-31T03:12:36.000Z,69.87
2017-12-31T03:13:37.000Z,70
2017-12-31T03:14:37.000Z,70.18
2017-12-31T03:15:37.000Z,70.01
2017-12-31T03:16:37.000Z,70
2017-12-31T03:17:37.000Z,70.1
2017-12-31T03:18:38.000Z,70.22
2017-12-31T03:19:39.000Z,70.18
2017-12-31T03:20:39.000Z,69.88
2017-12-31T03:21:40.000Z,70.22
2017-12-31T03:22:40.000Z,69.58
2017-12-31T03:23:40.000Z,69.67
2017-12-31T03:24:40.000Z,70.13
2017-12-31T03:25:40.000Z,69.95
2017-12-31T03:26:40.000Z,69.36
2017-12-31T03:27:41.000Z,69.59
2017-12-31T03:28:41.000Z,70.62
2017-12-31T03:29:42.000Z,69.98
2017-12-31T03:30:42.000Z,69.95
2017-12-31T03:31:43.000Z,70.27
2017-12-31T03:32:43.000Z,69.71
2017-12-31T03:33:43.000Z,69.64
2017-12-31T03:34:43.000Z,70.06
2017-12-31T03:35:43.000Z,70.21
2017-12-31T03:36:43.000Z,69.71
2017-12-31T03:37:43.000Z,69.68
2017-12-31T03:38:44.000Z,69.34
2017-12-31T03:39:45.000Z,69.67
2017-12-31T03:40:45.000Z,69.74
2017-12-31T03:41:45.000Z,69.21
2017-12-31T03:42:46.000Z,69.42
2017-12-31T03:43:46.000Z,70.13
2017-12-31T03:44:46.000Z,70.39
2017-12-31T03:45:46.000Z,70.19
2017-12-31T03:46:46.000Z,69.58
2017-12-31T03:47:47.000Z,70.33
2017-12-31T03:48:47.000Z,69.36
2017-12-31T03:49:47.000Z,69.83
2017-12-31T03:50:47.000Z,69.82
2017-12-31T03:51:48.000Z,69.75
2017-12-31T03:52:48.000Z,70.54
2017-12-31T03:53:48.000Z,69.5
2017-12-31T03:54:48.000Z,69.79
2017-12-31T03:55:48.000Z,69.81
2017-12-31T03:56:49.000Z,69.86
2017-12-31T03:57:49.000Z,70.06
2017-12-31T03:58:49.000Z,69.52
2017-12-31T03:59:49.000Z,70.03
2017-12-31T04:00:50.000Z,69.28
2017-12-31T04:01:50.000Z,69.77
2017-12-31T04:02:50.000Z,69.51
2017-12-31T04:03:50.000Z,69.29
2017-12-31T04:04:50.000Z,69.79
2017-12-31T04:05:51.000Z,69.92
2017-12-31T04:06:51.000Z,69.37
2017-12-31T04:07:51.000Z,69.41
2017-12-31T04:08:52.000Z,69.52
2017-12-31T04:09:52.000Z,69.43
2017-12-31T04:10:52.000Z,69.41
2017-12-31T04:11:52.000Z,69.56
2017-12-31T04:12:52.000Z,69.44
2017-12-31T04:13:52.000Z,69.47
2017-12-31T04:14:52.000Z,69.24
2017-12-31T04:15:52.000Z,68.88
2017-12-31T04:16:53.000Z,69.49
2017-12-31T04:17:53.000Z,69.27
2017-12-31T04:18:53.000Z,69.91
2017-12-31T04:19:54.000Z,69.25
2017-12-31T04:20:54.000Z,68.97
2017-12-31T04:21:55.000Z,69.05
2017-12-31T04:22:55.000Z,69.25
2017-12-31T04:23:55.000Z,68.94
2017-12-31T04:24:55.000Z,68.89
2017-12-31T04:25:56.000Z,69.11
2017-12-31T04:26:56.000Z,69.12
2017-12-31T04:27:56.000Z,69.05
2017-12-31T04:28:57.000Z,68.67
2017-12-31T04:29:57.000Z,69.27
2017-12-31T04:30:57.000Z,68.98
2017-12-31T04:31:57.000Z,68.87
2017-12-31T04:36:19.000Z,68.63
2017-12-31T04:37:19.000Z,68.79
2017-12-31T04:38:19.000Z,69.15
2017-12-31T04:39:20.000Z,69.01
2017-12-31T04:40:20.000Z,68.9
2017-12-31T04:41:20.000Z,68.67
2017-12-31T04:42:20.000Z,68.72
2017-12-31T04:43:21.000Z,68.66
2017-12-31T04:44:21.000Z,68.62
2017-12-31T04:45:21.000Z,68.91
2017-12-31T04:46:22.000Z,69.1
2017-12-31T04:47:23.000Z,68.93
2017-12-31T04:48:23.000Z,68.77
2017-12-31T04:49:23.000Z,68.51
2017-12-31T04:50:24.000Z,68.86
2017-12-31T04:51:24.000Z,68.86
2017-12-31T04:52:24.000Z,68.41
2017-12-31T04:53:24.000Z,68.8
2017-12-31T04:54:24.000Z,68.65
2017-12-31T04:55:24.000Z,68.85
2017-12-31T04:56:25.000Z,68.63
2017-12-31T04:57:25.000Z,68.87
2017-12-31T04:58:25.000Z,68.42
2017-12-31T04:59:26.000Z,68.43
2017-12-31T05:00:26.000Z,68.88
2017-12-31T05:01:26.000Z,68.97
2017-12-31T05:02:26.000Z,68.32
2017-12-31T05:03:26.000Z,68.92
2017-12-31T05:04:26.000Z,69.07
2017-12-31T05:05:27.000Z,68.83
2017-12-31T05:06:26.000Z,69.02
2017-12-31T05:07:27.000Z,68.6
2017-12-31T05:08:27.000Z,68.47
2017-12-31T05:09:27.000Z,68.88
2017-12-31T05:10:27.000Z,68.29
2017-12-31T05:11:28.000Z,68.78
2017-12-31T05:12:29.000Z,68.72
2017-12-31T05:13:29.000Z,68.7
2017-12-31T05:14:29.000Z,68.65
2017-12-31T05:15:29.000Z,68.75
2017-12-31T05:16:29.000Z,68.66
2017-12-31T05:17:29.000Z,68.56
2017-12-31T05:18:30.000Z,68.58
2017-12-31T05:19:30.000Z,69.64
2017-12-31T05:22:22.000Z,63.74
2017-12-31T05:23:22.000Z,62.06
2017-12-31T05:24:22.000Z,61.48
2017-12-31T05:25:23.000Z,61.27
2017-12-31T05:26:23.000Z,60.77
2017-12-31T05:27:24.000Z,61.21
2017-12-31T05:28:24.000Z,60.75
2017-12-31T05:29:24.000Z,60.22
2017-12-31T05:30:24.000Z,60.7
2017-12-31T05:31:25.000Z,60.3
2017-12-31T05:32:25.000Z,60.63
2017-12-31T05:36:45.000Z,61.5
2017-12-31T05:37:45.000Z,61.34
2017-12-31T05:38:46.000Z,60.92
2017-12-31T05:39:46.000Z,60.99
2017-12-31T05:40:46.000Z,60.67
2017-12-31T05:41:47.000Z,60.74
2017-12-31T05:42:50.000Z,60.63
2017-12-31T05:43:51.000Z,60.82
2017-12-31T05:44:51.000Z,61.79
2017-12-31T05:45:51.000Z,62.53
2017-12-31T05:46:52.000Z,62.18
2017-12-31T05:47:53.000Z,62.61
2017-12-31T05:48:53.000Z,62.78
2017-12-31T05:49:53.000Z,63.07
2017-12-31T05:50:53.000Z,63.46
2017-12-31T05:51:54.000Z,63.47
2017-12-31T05:52:54.000Z,63.73
2017-12-31T05:53:54.000Z,63.57
2017-12-31T05:54:54.000Z,64.01
2017-12-31T05:55:54.000Z,63.93
2017-12-31T05:56:54.000Z,64.26
2017-12-31T05:57:55.000Z,63.86
2017-12-31T05:58:55.000Z,63.56
2017-12-31T05:59:55.000Z,63.94
2017-12-31T06:00:56.000Z,63.93
2017-12-31T06:01:56.000Z,63.86
2017-12-31T06:02:56.000Z,63.91
2017-12-31T06:03:56.000Z,63.91
2017-12-31T06:04:57.000Z,63.69
2017-12-31T06:05:57.000Z,63.51
2017-12-31T06:06:57.000Z,63.4
2017-12-31T06:07:58.000Z,63.86
2017-12-31T06:08:58.000Z,64.16
2017-12-31T06:09:58.000Z,63.47
2017-12-31T06:10:58.000Z,63.54
2017-12-31T06:11:59.000Z,63.64
2017-12-31T06:12:59.000Z,63.56
2017-12-31T06:13:59.000Z,63.56
2017-12-31T06:14:59.000Z,63.93
2017-12-31T06:15:59.000Z,64.87
2017-12-31T06:17:00.000Z,65.32
2017-12-31T06:18:00.000Z,64.9
2017-12-31T06:19:01.000Z,65.14
2017-12-31T06:20:01.000Z,65.06
2017-12-31T06:21:01.000Z,64.62
2017-12-31T06:22:02.000Z,64.92
2017-12-31T06:23:02.000Z,64.23
2017-12-31T06:24:02.000Z,64.8
2017-12-31T06:25:02.000Z,64.83
2017-12-31T06:26:02.000Z,64.41
2017-12-31T06:27:02.000Z,64.74
2017-12-31T06:28:03.000Z,65.23
2017-12-31T06:29:03.000Z,65.4
2017-12-31T06:33:31.000Z,66.6
2017-12-31T06:34:31.000Z,67.22
2017-12-31T06:35:31.000Z,66.44
2017-12-31T06:36:32.000Z,67.55
2017-12-31T06:37:32.000Z,68.15
2017-12-31T06:38:32.000Z,68.05
2017-12-31T06:39:32.000Z,68.03
2017-12-31T06:40:33.000Z,68.32
2017-12-31T06:41:33.000Z,68.23
2017-12-31T06:42:33.000Z,68.72
2017-12-31T06:43:34.000Z,68.1
2017-12-31T06:44:34.000Z,68.15
2017-12-31T06:45:34.000Z,68.71
2017-12-31T06:46:34.000Z,68.74
2017-12-31T06:47:35.000Z,68.28
2017-12-31T06:48:35.000Z,68.48
2017-12-31T06:49:35.000Z,68.78
2017-12-31T06:50:35.000Z,68.84
2017-12-31T06:51:35.000Z,68.64
2017-12-31T06:52:35.000Z,68.81
2017-12-31T06:53:36.000Z,68.59
2017-12-31T06:54:36.000Z,68.68
2017-12-31T06:55:36.000Z,68.44
2017-12-31T06:56:36.000Z,68.85
2017-12-31T06:57:37.000Z,68.79
2017-12-31T06:58:38.000Z,68.73
2017-12-31T06:59:38.000Z,68.67
2017-12-31T07:00:38.000Z,68.52
2017-12-31T07:01:39.000Z,68.55
2017-12-31T07:02:39.000Z,68.47
2017-12-31T07:03:39.000Z,68.82
2017-12-31T07:04:40.000Z,68.35
2017-12-31T07:09:17.000Z,68.35
2017-12-31T07:10:17.000Z,67.85
2017-12-31T07:11:17.000Z,68.41
2017-12-31T07:13:46.000Z,68.55
2017-12-31T07:14:47.000Z,68.09
2017-12-31T07:15:47.000Z,67.68
2017-12-31T07:16:47.000Z,66.6
2017-12-31T07:17:47.000Z,67.86
2017-12-31T07:18:48.000Z,68.07
2017-12-31T07:19:49.000Z,68.77
2017-12-31T07:20:49.000Z,67.24
2017-12-31T07:21:49.000Z,66.81
2017-12-31T07:22:49.000Z,66.72
2017-12-31T07:23:49.000Z,66.49
2017-12-31T07:24:49.000Z,66.8
2017-12-31T07:25:49.000Z,66.65
2017-12-31T07:26:50.000Z,66.54
2017-12-31T07:27:50.000Z,66.57
2017-12-31T07:28:50.000Z,66.25
2017-12-31T07:29:51.000Z,66.33
2017-12-31T07:30:52.000Z,66.32
2017-12-31T07:31:52.000Z,66.62
2017-12-31T07:32:52.000Z,66.33
2017-12-31T07:33:53.000Z,65.65
2017-12-31T07:34:53.000Z,65.75
2017-12-31T07:35:53.000Z,65.57
2017-12-31T07:36:53.000Z,65.92
2017-12-31T07:37:53.000Z,66.38
2017-12-31T07:38:54.000Z,66.19
2017-12-31T07:39:54.000Z,66.24
2017-12-31T07:40:54.000Z,66.25
2017-12-31T07:41:54.000Z,66.45
2017-12-31T07:42:54.000Z,66.6
2017-12-31T07:47:54.000Z,66.78
2017-12-31T07:48:54.000Z,66.27
2017-12-31T07:49:54.000Z,66.26
2017-12-31T07:50:54.000Z,66.7
2017-12-31T07:51:55.000Z,66.35
2017-12-31T07:52:55.000Z,66.48
2017-12-31T07:53:55.000Z,66.81
2017-12-31T07:54:55.000Z,66.42
2017-12-31T07:55:55.000Z,66.29
2017-12-31T07:56:56.000Z,66.39
2017-12-31T07:57:57.000Z,66.35
2017-12-31T07:58:57.000Z,66.61
2017-12-31T07:59:57.000Z,66.23
2017-12-31T08:00:57.000Z,66.88
2017-12-31T08:01:58.000Z,66.65
2017-12-31T08:02:58.000Z,67.29
2017-12-31T08:03:58.000Z,66.94
2017-12-31T08:04:58.000Z,67.12
2017-12-31T08:05:58.000Z,67.96
2017-12-31T08:06:58.000Z,68.17
2017-12-31T08:07:59.000Z,67.78
2017-12-31T08:08:59.000Z,67.86
2017-12-31T08:09:59.000Z,67.97
2017-12-31T08:10:59.000Z,68.27
2017-12-31T08:11:59.000Z,69.07
2017-12-31T08:13:00.000Z,68.01
2017-12-31T08:14:00.000Z,67.27
2017-12-31T08:15:00.000Z,68
2017-12-31T08:16:01.000Z,69.37
2017-12-31T08:20:22.000Z,70.74
2017-12-31T08:21:22.000Z,68.22
2017-12-31T08:22:22.000Z,68.36
2017-12-31T08:23:22.000Z,69.48
2017-12-31T08:24:23.000Z,68.4
2017-12-31T08:25:24.000Z,69.99
2017-12-31T08:26:24.000Z,68.84
2017-12-31T08:27:24.000Z,69.01
2017-12-31T08:28:25.000Z,68.55
2017-12-31T08:29:25.000Z,67.62
2017-12-31T08:30:25.000Z,67.72
2017-12-31T08:31:25.000Z,67.54
2017-12-31T08:32:25.000Z,68.13
2017-12-31T08:33:25.000Z,67.96
2017-12-31T08:34:25.000Z,68.43
2017-12-31T08:35:25.000Z,68.68
2017-12-31T08:36:25.000Z,68.23
2017-12-31T08:37:26.000Z,68.17
2017-12-31T08:38:26.000Z,68.62
2017-12-31T08:39:27.000Z,67.9
2017-12-31T08:40:28.000Z,69.35
2017-12-31T08:41:28.000Z,70.32
2017-12-31T08:42:28.000Z,71.28
2017-12-31T08:43:29.000Z,70.64
2017-12-31T08:44:29.000Z,71.33
2017-12-31T08:45:29.000Z,69.3
2017-12-31T08:46:30.000Z,69.79
2017-12-31T08:47:30.000Z,69.35
2017-12-31T08:48:30.000Z,69.22
2017-12-31T08:49:30.000Z,69.98
2017-12-31T08:50:30.000Z,69.73
2017-12-31T08:51:31.000Z,69.45
2017-12-31T08:52:31.000Z,69.22
2017-12-31T08:53:31.000Z,69.49
2017-12-31T08:54:31.000Z,69.42
2017-12-31T08:55:31.000Z,70.28
2017-12-31T08:56:31.000Z,69.69
2017-12-31T08:57:32.000Z,69.73
2017-12-31T08:58:32.000Z,69.35
2017-12-31T08:59:32.000Z,69.84
2017-12-31T09:00:33.000Z,69.17
2017-12-31T09:05:44.000Z,69.76
2017-12-31T09:06:44.000Z,69.84
2017-12-31T09:07:44.000Z,69.96
2017-12-31T09:08:44.000Z,69.35
2017-12-31T09:09:44.000Z,70.04
2017-12-31T09:10:45.000Z,69.67
2017-12-31T09:11:45.000Z,69.15
2017-12-31T09:12:46.000Z,70.16
2017-12-31T09:13:46.000Z,69.95
2017-12-31T09:14:46.000Z,69.76
2017-12-31T09:15:46.000Z,69.58
2017-12-31T09:16:46.000Z,69.32
2017-12-31T09:17:46.000Z,69.65
2017-12-31T09:18:47.000Z,69.58
2017-12-31T09:19:47.000Z,69.38
2017-12-31T09:20:48.000Z,69.87
2017-12-31T09:21:48.000Z,70.23
2017-12-31T09:22:49.000Z,70.57
2017-12-31T09:23:49.000Z,70.09
2017-12-31T09:24:49.000Z,70.62
2017-12-31T09:25:50.000Z,70.36
2017-12-31T09:26:50.000Z,70.07
2017-12-31T09:27:50.000Z,72
2017-12-31T09:28:50.000Z,72.68
2017-12-31T09:29:51.000Z,72.97
2017-12-31T09:30:51.000Z,73.33
2017-12-31T09:31:51.000Z,71.3
2017-12-31T09:32:51.000Z,71.42
2017-12-31T09:33:51.000Z,72.4
2017-12-31T09:34:51.000Z,72.06
2017-12-31T09:35:51.000Z,71.37
2017-12-31T09:36:52.000Z,71.87
2017-12-31T09:37:52.000Z,72.21
2017-12-31T09:42:15.000Z,69.73
2017-12-31T09:43:15.000Z,69.66
2017-12-31T09:44:15.000Z,69.72
2017-12-31T09:45:16.000Z,69.7
2017-12-31T09:46:16.000Z,70.28
2017-12-31T09:47:16.000Z,69.4
2017-12-31T09:48:16.000Z,70.58
2017-12-31T09:49:16.000Z,72.84
2017-12-31T09:50:16.000Z,70.5
2017-12-31T09:51:17.000Z,70.12
2017-12-31T09:52:17.000Z,70.28
2017-12-31T09:57:33.000Z,72.61
2017-12-31T09:58:33.000Z,71.35
2017-12-31T09:59:33.000Z,71.12
2017-12-31T10:00:33.000Z,72.17
2017-12-31T10:01:33.000Z,73.36
2017-12-31T10:02:35.000Z,71.64
2017-12-31T10:03:35.000Z,71.5
2017-12-31T10:04:36.000Z,70.97
2017-12-31T10:05:36.000Z,70.95
2017-12-31T10:06:36.000Z,70.65
2017-12-31T10:11:35.000Z,71.58
2017-12-31T10:12:34.000Z,71.28
2017-12-31T10:13:35.000Z,71.72
2017-12-31T10:14:35.000Z,71.57
2017-12-31T10:17:00.000Z,70.62
2017-12-31T10:18:00.000Z,71.18
2017-12-31T10:19:00.000Z,71.13
2017-12-31T10:20:00.000Z,70.72
2017-12-31T10:21:00.000Z,71.37
2017-12-31T10:22:01.000Z,70.62
2017-12-31T10:23:01.000Z,70.93
2017-12-31T10:24:02.000Z,71.17
2017-12-31T10:25:02.000Z,71.11
2017-12-31T10:26:02.000Z,71.48
2017-12-31T10:27:02.000Z,70.77
2017-12-31T10:28:02.000Z,71.98
2017-12-31T10:29:02.000Z,68.98
2017-12-31T10:30:02.000Z,66.95
2017-12-31T10:31:03.000Z,65.42
2017-12-31T10:32:03.000Z,63.91
2017-12-31T10:33:03.000Z,63.33
2017-12-31T10:34:03.000Z,62.85
2017-12-31T10:35:03.000Z,62.95
2017-12-31T10:36:04.000Z,62.49
2017-12-31T10:37:04.000Z,62.51
2017-12-31T10:38:04.000Z,62.83
2017-12-31T10:39:04.000Z,62.53
2017-12-31T10:40:05.000Z,62.82
2017-12-31T10:41:05.000Z,62.82
2017-12-31T10:42:06.000Z,62.53
2017-12-31T10:43:06.000Z,62.73
2017-12-31T10:44:06.000Z,62.76
2017-12-31T10:45:07.000Z,62.55
2017-12-31T10:46:07.000Z,62.79
2017-12-31T10:47:06.000Z,63.03
2017-12-31T10:51:47.000Z,63.19
2017-12-31T10:52:48.000Z,62.57
2017-12-31T10:53:49.000Z,62.67
2017-12-31T10:56:49.000Z,65.81
2017-12-31T10:57:49.000Z,66.53
2017-12-31T10:58:50.000Z,67.28
2017-12-31T10:59:50.000Z,67.11
2017-12-31T11:00:50.000Z,67.56
2017-12-31T11:01:50.000Z,67.75
2017-12-31T11:02:52.000Z,67.89
2017-12-31T11:03:52.000Z,67.96
2017-12-31T11:04:52.000Z,67.9
2017-12-31T11:05:53.000Z,67.84
2017-12-31T11:10:15.000Z,68.61
2017-12-31T11:11:15.000Z,68.12
2017-12-31T11:12:15.000Z,67.92
2017-12-31T11:13:15.000Z,68.36
2017-12-31T11:14:16.000Z,68.26
2017-12-31T11:15:16.000Z,68.17
2017-12-31T11:16:17.000Z,67.24
2017-12-31T11:17:17.000Z,67.51
2017-12-31T11:18:17.000Z,68.64
2017-12-31T11:19:17.000Z,68.53
2017-12-31T11:20:18.000Z,67.45
2017-12-31T11:21:18.000Z,68.21
2017-12-31T11:22:19.000Z,68.5
2017-12-31T11:23:19.000Z,67.76
2017-12-31T11:24:19.000Z,67.54
2017-12-31T11:25:19.000Z,67.4
2017-12-31T11:26:19.000Z,67.67
2017-12-31T11:27:19.000Z,67.94
2017-12-31T11:32:03.000Z,69.29
2017-12-31T11:33:03.000Z,68.17
2017-12-31T11:34:03.000Z,68.14
2017-12-31T11:35:04.000Z,68.59
2017-12-31T11:36:04.000Z,68.31
2017-12-31T11:37:04.000Z,68.15
2017-12-31T11:38:04.000Z,68.41
2017-12-31T11:39:04.000Z,68.55
2017-12-31T11:40:04.000Z,68.63
2017-12-31T11:41:04.000Z,68.46
2017-12-31T11:42:05.000Z,70
2017-12-31T11:43:05.000Z,68.6
2017-12-31T11:44:06.000Z,68.25
2017-12-31T11:45:06.000Z,68.59
2017-12-31T11:46:06.000Z,68.7
2017-12-31T11:47:06.000Z,69.34
2017-12-31T11:48:06.000Z,68.98
2017-12-31T11:49:06.000Z,69.17
2017-12-31T11:50:07.000Z,68.82
2017-12-31T11:51:07.000Z,68.96
2017-12-31T11:52:07.000Z,68.35
2017-12-31T11:53:07.000Z,68.64
2017-12-31T11:54:07.000Z,68.92
2017-12-31T11:55:07.000Z,68.81
2017-12-31T11:56:07.000Z,68.96
2017-12-31T11:57:08.000Z,69.34
2017-12-31T11:58:08.000Z,69.22
2017-12-31T11:59:09.000Z,68.96
2017-12-31T12:00:09.000Z,69.91
2017-12-31T12:01:09.000Z,68.96
2017-12-31T12:02:09.000Z,69.63
2017-12-31T12:03:09.000Z,69.91
2017-12-31T12:04:09.000Z,70.87
2017-12-31T12:05:09.000Z,70.16
2017-12-31T12:06:09.000Z,70.07
2017-12-31T12:07:09.000Z,70.23
2017-12-31T12:08:09.000Z,70.36
2017-12-31T12:09:09.000Z,70.16
2017-12-31T12:10:10.000Z,70.17
2017-12-31T12:11:11.000Z,70.3
2017-12-31T12:12:12.000Z,70.25
2017-12-31T12:13:12.000Z,70.34
2017-12-31T12:14:12.000Z,70.82
2017-12-31T12:15:13.000Z,70.58
2017-12-31T12:16:13.000Z,70.23
2017-12-31T12:17:12.000Z,71.43
2017-12-31T12:18:13.000Z,70.79
2017-12-31T12:19:13.000Z,71.53
2017-12-31T12:20:13.000Z,71.07
2017-12-31T12:21:14.000Z,71.9
2017-12-31T12:22:14.000Z,71.56
2017-12-31T12:27:19.000Z,72.28
2017-12-31T12:28:19.000Z,72.6
2017-12-31T12:29:19.000Z,72.8
2017-12-31T12:30:19.000Z,73.4
2017-12-31T12:31:19.000Z,72.27
2017-12-31T12:32:20.000Z,72.07
2017-12-31T12:33:20.000Z,73.87
2017-12-31T12:34:20.000Z,72.39
2017-12-31T12:35:20.000Z,72.74
2017-12-31T12:36:20.000Z,72.72
2017-12-31T12:37:20.000Z,72.78
2017-12-31T12:38:20.000Z,72.22
2017-12-31T12:39:21.000Z,73.05
2017-12-31T12:40:21.000Z,73.15
2017-12-31T12:41:21.000Z,73.14
2017-12-31T12:42:22.000Z,73.08
2017-12-31T12:43:22.000Z,72.9
2017-12-31T12:44:23.000Z,72.99
2017-12-31T12:45:23.000Z,74.2
2017-12-31T12:46:23.000Z,72.87
2017-12-31T12:47:23.000Z,73.27
2017-12-31T12:48:23.000Z,73.5
2017-12-31T12:49:24.000Z,72.94
2017-12-31T12:50:24.000Z,72.69
2017-12-31T12:51:24.000Z,72.75
2017-12-31T12:52:24.000Z,73.73
2017-12-31T12:53:24.000Z,73.27
2017-12-31T12:56:23.000Z,73.33
2017-12-31T12:57:23.000Z,72.46
2017-12-31T12:58:23.000Z,74.67
2017-12-31T12:59:24.000Z,74.69
2017-12-31T13:00:24.000Z,72.78
2017-12-31T13:01:24.000Z,72.84
2017-12-31T13:02:24.000Z,73
2017-12-31T13:03:24.000Z,74.46
2017-12-31T13:04:25.000Z,72.96
2017-12-31T13:05:25.000Z,72.7
2017-12-31T13:06:25.000Z,72.98
2017-12-31T13:07:26.000Z,73.2
2017-12-31T13:08:26.000Z,73.02
2017-12-31T13:09:27.000Z,72.54
2017-12-31T13:10:27.000Z,72.79
2017-12-31T13:11:27.000Z,72.27
2017-12-31T13:12:27.000Z,72.18
2017-12-31T13:13:27.000Z,72.45
2017-12-31T13:14:27.000Z,72.58
2017-12-31T13:15:27.000Z,73.19
2017-12-31T13:16:28.000Z,73.92
2017-12-31T13:17:28.000Z,73.12
2017-12-31T13:18:28.000Z,73.47
2017-12-31T13:19:28.000Z,74.32
2017-12-31T13:20:29.000Z,73.61
2017-12-31T13:21:29.000Z,73.74
2017-12-31T13:22:29.000Z,74.25
2017-12-31T13:23:29.000Z,73.83
2017-12-31T13:24:29.000Z,73.69
2017-12-31T13:25:29.000Z,74.53
2017-12-31T13:26:30.000Z,74.16
2017-12-31T13:27:30.000Z,74.12
2017-12-31T13:28:31.000Z,73.71
2017-12-31T13:29:31.000Z,74.15
2017-12-31T13:30:31.000Z,74.33
2017-12-31T13:31:31.000Z,73.95
2017-12-31T13:32:32.000Z,74.46
2017-12-31T13:33:32.000Z,74.61
2017-12-31T13:34:33.000Z,74.29
2017-12-31T13:35:33.000Z,74.24
2017-12-31T13:40:45.000Z,74.95
2017-12-31T13:41:45.000Z,74.2
2017-12-31T13:42:45.000Z,74.83
2017-12-31T13:43:45.000Z,74.09
2017-12-31T13:44:45.000Z,74.2
2017-12-31T13:45:45.000Z,74.81
2017-12-31T13:46:45.000Z,74.13
2017-12-31T13:47:45.000Z,74.15
2017-12-31T13:48:45.000Z,74.36
2017-12-31T13:49:46.000Z,75.31
2017-12-31T13:50:47.000Z,74.32
2017-12-31T13:51:47.000Z,75.32
2017-12-31T13:52:47.000Z,74.91
2017-12-31T13:53:47.000Z,74.18
2017-12-31T13:54:47.000Z,75.02
2017-12-31T13:55:47.000Z,74.51
2017-12-31T13:56:47.000Z,73.85
2017-12-31T13:57:48.000Z,74.52
2017-12-31T13:58:48.000Z,74.87
2017-12-31T13:59:48.000Z,74.22
2017-12-31T14:00:48.000Z,74.22
2017-12-31T14:05:09.000Z,68.13
2017-12-31T14:06:10.000Z,67.06
2017-12-31T14:07:10.000Z,66.56
2017-12-31T14:08:11.000Z,66.49
2017-12-31T14:09:12.000Z,65.71
2017-12-31T14:10:12.000Z,64.87
2017-12-31T14:11:13.000Z,69.4
2017-12-31T14:12:13.000Z,69.43
2017-12-31T14:13:13.000Z,69.42
2017-12-31T14:14:13.000Z,70.15
2017-12-31T14:15:14.000Z,71.17
2017-12-31T14:16:14.000Z,72.21
2017-12-31T14:17:14.000Z,71.72
2017-12-31T14:18:15.000Z,71.63
2017-12-31T14:19:16.000Z,71.4